»·PEaware :: N245LG KCRQ-KPSP

N245LG :: KCRQ-KPSP

FLIGHT INFORMATION

Flight Status: Arrived
Operator: Privately registered:
United States
More flights under this callsign
Pilot: Erik A. (17503)
Aircraft: CESSNA 172 SKYHAWK
(C172)
More flights by this aircraft type
Origin: KCRQ McClellan-Palomar
United States
Destination: KPSP Palm Springs Intl
United States
More flights between these airports :: More routes between these airports
Route: +JLI V208 TRM
File this flight plan on PilotEdge
Remarks:
Altitude:
(Current/Filed)
9,000ft
Speed:
(Current/Filed)
100kts
Departed: 12-Jan-18 03:35 PM
Arrived: 12-Jan-18 04:29 PM
Distance/Time
Traveled:
57nm/0:54
Distance/Time
To Go:
Arrived

Flight Plot

Page will automatically refresh every two minutes.


Map Options




Map Legend


Flown Route
Filed Route
Departure Airport
Arrival Airport
Navaid (VOR, NDB)
Fix

Horizontal Profiles

Position Reports

Time Latitude Longitude Heading Altitude Ground
Speed
12-Jan-18 15:22 33.127732 -117.275404 258 303ft 0kts
12-Jan-18 15:23 33.127732 -117.275404 258 303ft 0kts
12-Jan-18 15:24 33.127732 -117.275404 258 303ft 0kts
12-Jan-18 15:25 33.127732 -117.275404 258 303ft 0kts
12-Jan-18 15:26 33.127732 -117.275404 258 303ft 0kts
12-Jan-18 15:27 33.127732 -117.275404 258 303ft 0kts
12-Jan-18 15:28 33.127732 -117.275404 258 303ft 0kts
12-Jan-18 15:29 33.127732 -117.275404 258 303ft 0kts
12-Jan-18 15:30 33.127732 -117.275404 258 303ft 0kts
12-Jan-18 15:31 33.127732 -117.275404 258 303ft 0kts
12-Jan-18 15:32 33.127732 -117.275404 258 303ft 0kts
12-Jan-18 15:33 33.127732 -117.275404 258 303ft 0kts
12-Jan-18 15:34 33.127731 -117.275407 258 303ft 0kts
12-Jan-18 15:35 33.127852 -117.275472 58 303ft 2kts
12-Jan-18 15:36 33.128500 -117.273172 81 303ft 11kts
12-Jan-18 15:37 33.128772 -117.272418 351 303ft 0kts
12-Jan-18 15:38 33.128775 -117.272418 351 303ft 0kts
12-Jan-18 15:39 33.128780 -117.272419 351 303ft 0kts
12-Jan-18 15:40 33.129340 -117.272752 290 303ft 11kts
12-Jan-18 15:41 33.127374 -117.291858 265 728ft 74kts
12-Jan-18 15:42 33.125617 -117.315081 265 1431ft 76kts
12-Jan-18 15:43 33.123667 -117.340683 266 2146ft 79kts
12-Jan-18 15:44 33.135756 -117.350618 34 2772ft 80kts
12-Jan-18 15:45 33.139725 -117.325700 87 3481ft 83kts
12-Jan-18 15:46 33.139291 -117.297526 83 4123ft 87kts
12-Jan-18 15:47 33.137741 -117.267817 89 4916ft 91kts
12-Jan-18 15:48 33.136801 -117.238888 85 5467ft 90kts
12-Jan-18 15:49 33.135479 -117.209100 85 5983ft 93kts
12-Jan-18 15:50 33.134069 -117.178483 82 6863ft 92kts
12-Jan-18 15:51 33.133217 -117.147582 84 7452ft 94kts
12-Jan-18 15:52 33.131197 -117.116044 82 7798ft 95kts
12-Jan-18 15:53 33.128868 -117.084537 82 8171ft 94kts
12-Jan-18 15:54 33.127118 -117.052751 83 8548ft 96kts
12-Jan-18 15:55 33.124633 -117.020554 80 8937ft 96kts
12-Jan-18 15:56 33.124879 -116.985069 81 9082ft 110kts
12-Jan-18 15:57 33.123520 -116.945890 81 9145ft 121kts
12-Jan-18 15:58 33.124518 -116.903502 76 9060ft 132kts
12-Jan-18 15:59 33.130360 -116.859279 69 8990ft 131kts
12-Jan-18 16:00 33.135845 -116.817631 73 8928ft 122kts
12-Jan-18 16:01 33.139452 -116.777524 75 8972ft 120kts
12-Jan-18 16:02 33.141017 -116.737554 82 8995ft 122kts
12-Jan-18 16:03 33.140522 -116.696181 84 9212ft 128kts
12-Jan-18 16:04 33.140709 -116.652680 79 9210ft 132kts
12-Jan-18 16:05 33.142817 -116.607214 73 9074ft 135kts
12-Jan-18 16:06 33.160204 -116.573042 33 8838ft 118kts
12-Jan-18 16:07 33.180824 -116.545370 36 9016ft 106kts
12-Jan-18 16:08 33.203092 -116.519329 35 9124ft 119kts
12-Jan-18 16:09 33.227339 -116.492099 36 9592ft 97kts
12-Jan-18 16:10 33.244142 -116.470236 34 10197ft 86kts
12-Jan-18 16:11 33.259250 -116.449549 28 10594ft 80kts
12-Jan-18 16:12 33.276865 -116.429975 26 11138ft 100kts
12-Jan-18 16:13 33.302428 -116.408305 26 11185ft 121kts
12-Jan-18 16:14 33.331595 -116.386435 21 11092ft 123kts
12-Jan-18 16:15 33.362327 -116.368630 23 11004ft 124kts
12-Jan-18 16:16 33.391200 -116.351239 18 11151ft 117kts
12-Jan-18 16:17 33.421761 -116.338253 14 11168ft 114kts
12-Jan-18 16:18 33.450012 -116.320692 27 10958ft 116kts
12-Jan-18 16:19 33.476730 -116.297937 28 10976ft 117kts
12-Jan-18 16:20 33.505609 -116.275268 30 10381ft 128kts
12-Jan-18 16:21 33.532935 -116.248296 42 9426ft 127kts
12-Jan-18 16:22 33.557027 -116.220236 39 8937ft 108kts
12-Jan-18 16:23 33.580699 -116.200367 5 8788ft 105kts
12-Jan-18 16:24 33.607403 -116.222435 318 8085ft 118kts
12-Jan-18 16:25 33.628504 -116.253689 313 7163ft 120kts
12-Jan-18 16:26 33.649425 -116.284280 310 6170ft 117kts
12-Jan-18 16:27 33.669399 -116.314757 312 5505ft 115kts
12-Jan-18 16:28 33.689010 -116.345280 312 4960ft 115kts
12-Jan-18 16:29 33.706425 -116.370259 312 4747ft 111kts
12-Jan-18 16:30 33.729415 -116.403464 313 3863ft 111kts
12-Jan-18 16:31 33.750950 -116.429639 319 2805ft 108kts
12-Jan-18 16:32 33.769594 -116.450197 321 1831ft 111kts
12-Jan-18 16:33 33.793899 -116.472738 323 1221ft 110kts
12-Jan-18 16:34 33.820847 -116.496943 322 576ft 76kts
12-Jan-18 16:35 33.828766 -116.503978 323 480ft 21kts
12-Jan-18 16:36 33.830025 -116.504396 51 480ft 0kts
12-Jan-18 16:37 33.829769 -116.503895 141 480ft 6kts
12-Jan-18 16:38 33.827136 -116.501544 143 480ft 14kts
12-Jan-18 16:39 33.823814 -116.498381 146 480ft 14kts
12-Jan-18 16:40 33.822969 -116.498011 54 480ft 0kts
12-Jan-18 16:41 33.822969 -116.498011 54 480ft 0kts

Navigation Log

Ident Type
1. KCRQ Airport
2. JLI Navaid
3. WARNE Fix
4. TRM Navaid
5. KPSP Airport